sensor_id;sensor_type;location;lat;lon;timestamp;P1;durP1;ratioP1;P2;durP2;ratioP2
71080;SDS011;58740;50.672;18.690;2023-02-15T00:00:11;16.10;;;9.80;;
71080;SDS011;58740;50.672;18.690;2023-02-15T00:02:59;17.10;;;9.50;;
71080;SDS011;58740;50.672;18.690;2023-02-15T00:05:26;20.30;;;11.30;;
71080;SDS011;58740;50.672;18.690;2023-02-15T00:07:56;55.90;;;26.20;;
71080;SDS011;58740;50.672;18.690;2023-02-15T00:10:24;53.60;;;27.40;;
71080;SDS011;58740;50.672;18.690;2023-02-15T00:12:52;53.10;;;27.90;;
71080;SDS011;58740;50.672;18.690;2023-02-15T00:15:19;53.60;;;25.70;;
71080;SDS011;58740;50.672;18.690;2023-02-15T00:17:47;52.70;;;24.90;;
71080;SDS011;58740;50.672;18.690;2023-02-15T00:20:15;49.00;;;25.00;;
71080;SDS011;58740;50.672;18.690;2023-02-15T00:22:43;54.80;;;26.50;;
71080;SDS011;58740;50.672;18.690;2023-02-15T00:25:11;50.00;;;25.00;;
71080;SDS011;58740;50.672;18.690;2023-02-15T00:27:38;52.70;;;25.50;;
71080;SDS011;58740;50.672;18.690;2023-02-15T00:30:06;55.30;;;27.90;;
71080;SDS011;58740;50.672;18.690;2023-02-15T00:32:35;42.40;;;21.90;;
71080;SDS011;58740;50.672;18.690;2023-02-15T00:35:03;39.40;;;19.20;;
71080;SDS011;58740;50.672;18.690;2023-02-15T00:37:31;34.10;;;19.10;;
71080;SDS011;58740;50.672;18.690;2023-02-15T00:39:59;37.10;;;17.80;;
71080;SDS011;58740;50.672;18.690;2023-02-15T00:42:26;37.20;;;19.30;;
71080;SDS011;58740;50.672;18.690;2023-02-15T00:44:54;32.40;;;16.70;;
71080;SDS011;58740;50.672;18.690;2023-02-15T00:47:22;42.70;;;19.10;;
71080;SDS011;58740;50.672;18.690;2023-02-15T00:49:51;30.40;;;14.60;;
71080;SDS011;58740;50.672;18.690;2023-02-15T00:52:19;25.50;;;13.40;;
71080;SDS011;58740;50.672;18.690;2023-02-15T00:54:47;28.50;;;14.20;;
71080;SDS011;58740;50.672;18.690;2023-02-15T00:57:14;19.30;;;11.10;;
71080;SDS011;58740;50.672;18.690;2023-02-15T00:59:42;23.40;;;13.70;;
71080;SDS011;58740;50.672;18.690;2023-02-15T01:02:10;24.70;;;12.40;;
71080;SDS011;58740;50.672;18.690;2023-02-15T01:04:38;25.80;;;13.20;;
71080;SDS011;58740;50.672;18.690;2023-02-15T01:07:05;28.20;;;15.20;;
71080;SDS011;58740;50.672;18.690;2023-02-15T01:09:33;26.10;;;14.40;;
71080;SDS011;58740;50.672;18.690;2023-02-15T01:12:01;24.50;;;14.10;;
71080;SDS011;58740;50.672;18.690;2023-02-15T01:14:29;29.80;;;15.00;;
71080;SDS011;58740;50.672;18.690;2023-02-15T01:16:57;29.80;;;15.90;;
71080;SDS011;58740;50.672;18.690;2023-02-15T01:19:24;28.90;;;16.00;;
71080;SDS011;58740;50.672;18.690;2023-02-15T01:21:52;29.20;;;16.10;;
71080;SDS011;58740;50.672;18.690;2023-02-15T01:24:20;33.90;;;16.40;;
71080;SDS011;58740;50.672;18.690;2023-02-15T01:26:48;25.30;;;13.40;;
71080;SDS011;58740;50.672;18.690;2023-02-15T01:29:16;28.10;;;13.60;;
71080;SDS011;58740;50.672;18.690;2023-02-15T01:31:43;28.00;;;14.90;;
71080;SDS011;58740;50.672;18.690;2023-02-15T01:34:11;31.00;;;15.20;;
71080;SDS011;58740;50.672;18.690;2023-02-15T01:36:39;24.70;;;13.90;;
71080;SDS011;58740;50.672;18.690;2023-02-15T01:39:07;23.80;;;14.10;;
71080;SDS011;58740;50.672;18.690;2023-02-15T01:41:36;19.60;;;11.50;;
71080;SDS011;58740;50.672;18.690;2023-02-15T01:47:12;19.30;;;11.00;;
71080;SDS011;58740;50.672;18.690;2023-02-15T01:49:51;22.50;;;12.50;;
71080;SDS011;58740;50.672;18.690;2023-02-15T01:52:28;26.60;;;13.40;;
71080;SDS011;58740;50.672;18.690;2023-02-15T01:54:57;26.90;;;13.30;;
71080;SDS011;58740;50.672;18.690;2023-02-15T01:57:27;22.80;;;12.40;;
71080;SDS011;58740;50.672;18.690;2023-02-15T01:59:58;22.70;;;11.50;;
71080;SDS011;58740;50.672;18.690;2023-02-15T02:02:30;24.80;;;12.20;;
71080;SDS011;58740;50.672;18.690;2023-02-15T02:05:00;26.00;;;13.90;;
71080;SDS011;58740;50.672;18.690;2023-02-15T02:07:40;25.10;;;13.90;;
71080;SDS011;58740;50.672;18.690;2023-02-15T02:10:16;22.60;;;12.40;;
71080;SDS011;58740;50.672;18.690;2023-02-15T02:12:47;22.20;;;12.60;;
71080;SDS011;58740;50.672;18.690;2023-02-15T02:15:19;27.50;;;15.10;;
71080;SDS011;58740;50.672;18.690;2023-02-15T02:18:03;27.50;;;15.10;;
71080;SDS011;58740;50.672;18.690;2023-02-15T02:36:10;22.00;;;12.00;;
71080;SDS011;58740;50.672;18.690;2023-02-15T02:38:55;24.20;;;12.80;;
71080;SDS011;58740;50.672;18.690;2023-02-15T02:41:36;23.70;;;13.10;;
71080;SDS011;58740;50.672;18.690;2023-02-15T02:44:19;24.20;;;12.50;;
71080;SDS011;58740;50.672;18.690;2023-02-15T02:46:57;25.20;;;14.00;;
71080;SDS011;58740;50.672;18.690;2023-02-15T02:49:38;26.90;;;13.50;;
71080;SDS011;58740;50.672;18.690;2023-02-15T02:55:32;24.30;;;13.20;;
71080;SDS011;58740;50.672;18.690;2023-02-15T02:58:23;25.50;;;12.50;;
71080;SDS011;58740;50.672;18.690;2023-02-15T03:03:38;19.50;;;10.40;;
71080;SDS011;58740;50.672;18.690;2023-02-15T03:06:30;23.30;;;11.10;;
71080;SDS011;58740;50.672;18.690;2023-02-15T03:09:21;26.00;;;13.70;;
71080;SDS011;58740;50.672;18.690;2023-02-15T03:12:02;16.60;;;9.20;;
71080;SDS011;58740;50.672;18.690;2023-02-15T03:14:33;20.70;;;11.30;;
71080;SDS011;58740;50.672;18.690;2023-02-15T03:17:02;24.70;;;13.40;;
71080;SDS011;58740;50.672;18.690;2023-02-15T03:19:34;19.20;;;10.60;;
71080;SDS011;58740;50.672;18.690;2023-02-15T03:22:08;21.80;;;11.40;;
71080;SDS011;58740;50.672;18.690;2023-02-15T03:25:14;15.90;;;9.50;;
71080;SDS011;58740;50.672;18.690;2023-02-15T03:27:56;17.20;;;9.90;;
71080;SDS011;58740;50.672;18.690;2023-02-15T03:30:28;22.80;;;13.10;;
71080;SDS011;58740;50.672;18.690;2023-02-15T03:32:59;22.70;;;12.10;;
71080;SDS011;58740;50.672;18.690;2023-02-15T03:35:36;23.00;;;11.50;;
71080;SDS011;58740;50.672;18.690;2023-02-15T03:38:14;23.70;;;13.90;;
71080;SDS011;58740;50.672;18.690;2023-02-15T03:40:47;20.10;;;10.30;;
71080;SDS011;58740;50.672;18.690;2023-02-15T03:44:04;22.80;;;12.10;;
71080;SDS011;58740;50.672;18.690;2023-02-15T03:46:40;16.90;;;8.80;;
71080;SDS011;58740;50.672;18.690;2023-02-15T03:49:26;21.70;;;11.60;;
71080;SDS011;58740;50.672;18.690;2023-02-15T03:51:59;25.10;;;12.20;;
71080;SDS011;58740;50.672;18.690;2023-02-15T03:54:33;22.10;;;11.60;;
71080;SDS011;58740;50.672;18.690;2023-02-15T03:57:19;26.10;;;12.60;;
71080;SDS011;58740;50.672;18.690;2023-02-15T04:00:18;19.20;;;10.30;;
71080;SDS011;58740;50.672;18.690;2023-02-15T04:03:20;18.10;;;10.10;;
71080;SDS011;58740;50.672;18.690;2023-02-15T04:05:53;24.90;;;13.10;;
71080;SDS011;58740;50.672;18.690;2023-02-15T04:08:21;22.30;;;11.10;;
71080;SDS011;58740;50.672;18.690;2023-02-15T04:11:09;24.20;;;12.80;;
71080;SDS011;58740;50.672;18.690;2023-02-15T04:13:37;27.40;;;13.50;;
71080;SDS011;58740;50.672;18.690;2023-02-15T04:16:05;25.30;;;12.70;;
71080;SDS011;58740;50.672;18.690;2023-02-15T04:18:36;22.70;;;12.30;;
71080;SDS011;58740;50.672;18.690;2023-02-15T04:21:26;19.50;;;11.30;;
71080;SDS011;58740;50.672;18.690;2023-02-15T04:24:15;22.80;;;10.60;;
71080;SDS011;58740;50.672;18.690;2023-02-15T04:27:03;20.30;;;11.00;;
71080;SDS011;58740;50.672;18.690;2023-02-15T04:29:32;24.20;;;12.40;;
71080;SDS011;58740;50.672;18.690;2023-02-15T04:32:00;28.70;;;14.50;;
71080;SDS011;58740;50.672;18.690;2023-02-15T04:34:29;26.20;;;13.00;;
71080;SDS011;58740;50.672;18.690;2023-02-15T04:36:57;25.80;;;11.60;;
71080;SDS011;58740;50.672;18.690;2023-02-15T04:39:25;24.30;;;12.90;;
71080;SDS011;58740;50.672;18.690;2023-02-15T04:41:53;25.70;;;13.30;;
71080;SDS011;58740;50.672;18.690;2023-02-15T04:44:20;23.10;;;13.30;;
71080;SDS011;58740;50.672;18.690;2023-02-15T04:46:48;23.70;;;12.60;;
71080;SDS011;58740;50.672;18.690;2023-02-15T04:49:16;23.40;;;13.30;;
71080;SDS011;58740;50.672;18.690;2023-02-15T04:51:44;26.40;;;12.40;;
71080;SDS011;58740;50.672;18.690;2023-02-15T04:54:11;28.30;;;14.40;;
71080;SDS011;58740;50.672;18.690;2023-02-15T04:56:39;29.60;;;15.50;;
71080;SDS011;58740;50.672;18.690;2023-02-15T04:59:10;31.80;;;14.70;;
71080;SDS011;58740;50.672;18.690;2023-02-15T05:01:38;20.90;;;12.00;;
71080;SDS011;58740;50.672;18.690;2023-02-15T05:04:06;23.80;;;12.30;;
71080;SDS011;58740;50.672;18.690;2023-02-15T05:06:34;24.70;;;12.30;;
71080;SDS011;58740;50.672;18.690;2023-02-15T05:09:02;30.20;;;13.60;;
71080;SDS011;58740;50.672;18.690;2023-02-15T05:11:30;26.50;;;14.30;;
71080;SDS011;58740;50.672;18.690;2023-02-15T05:13:58;29.10;;;14.60;;
71080;SDS011;58740;50.672;18.690;2023-02-15T05:16:26;32.60;;;15.60;;
71080;SDS011;58740;50.672;18.690;2023-02-15T05:18:55;32.20;;;15.10;;
71080;SDS011;58740;50.672;18.690;2023-02-15T05:21:23;35.10;;;17.40;;
71080;SDS011;58740;50.672;18.690;2023-02-15T05:23:51;37.30;;;17.50;;
71080;SDS011;58740;50.672;18.690;2023-02-15T05:26:21;37.10;;;17.50;;
71080;SDS011;58740;50.672;18.690;2023-02-15T05:29:10;39.70;;;16.80;;
71080;SDS011;58740;50.672;18.690;2023-02-15T05:31:38;32.30;;;15.10;;
71080;SDS011;58740;50.672;18.690;2023-02-15T05:34:06;29.80;;;16.10;;
71080;SDS011;58740;50.672;18.690;2023-02-15T05:36:34;38.70;;;16.30;;
71080;SDS011;58740;50.672;18.690;2023-02-15T05:39:02;33.90;;;16.70;;
71080;SDS011;58740;50.672;18.690;2023-02-15T05:41:31;42.00;;;18.50;;
71080;SDS011;58740;50.672;18.690;2023-02-15T05:43:59;33.10;;;13.40;;
71080;SDS011;58740;50.672;18.690;2023-02-15T05:46:26;39.00;;;15.40;;
71080;SDS011;58740;50.672;18.690;2023-02-15T05:48:54;32.50;;;15.70;;
71080;SDS011;58740;50.672;18.690;2023-02-15T05:51:22;43.90;;;19.80;;
71080;SDS011;58740;50.672;18.690;2023-02-15T05:53:50;40.80;;;16.40;;
71080;SDS011;58740;50.672;18.690;2023-02-15T05:56:17;48.00;;;20.70;;
71080;SDS011;58740;50.672;18.690;2023-02-15T05:58:45;34.10;;;16.50;;
71080;SDS011;58740;50.672;18.690;2023-02-15T06:01:18;46.60;;;20.00;;
71080;SDS011;58740;50.672;18.690;2023-02-15T06:03:48;63.30;;;25.10;;
71080;SDS011;58740;50.672;18.690;2023-02-15T06:06:16;77.10;;;25.90;;
71080;SDS011;58740;50.672;18.690;2023-02-15T06:08:44;59.90;;;23.00;;
71080;SDS011;58740;50.672;18.690;2023-02-15T06:11:12;65.80;;;24.40;;
71080;SDS011;58740;50.672;18.690;2023-02-15T06:13:39;54.90;;;20.40;;
71080;SDS011;58740;50.672;18.690;2023-02-15T06:16:07;69.80;;;28.10;;
71080;SDS011;58740;50.672;18.690;2023-02-15T06:18:35;79.80;;;32.50;;
71080;SDS011;58740;50.672;18.690;2023-02-15T06:21:03;57.80;;;27.20;;
71080;SDS011;58740;50.672;18.690;2023-02-15T06:23:30;76.20;;;28.10;;
71080;SDS011;58740;50.672;18.690;2023-02-15T06:25:58;86.90;;;32.10;;
71080;SDS011;58740;50.672;18.690;2023-02-15T06:28:26;61.60;;;27.90;;
71080;SDS011;58740;50.672;18.690;2023-02-15T06:30:54;48.00;;;20.20;;
71080;SDS011;58740;50.672;18.690;2023-02-15T06:33:22;52.90;;;20.30;;
71080;SDS011;58740;50.672;18.690;2023-02-15T06:35:50;68.30;;;24.20;;
71080;SDS011;58740;50.672;18.690;2023-02-15T06:38:18;54.60;;;21.90;;
71080;SDS011;58740;50.672;18.690;2023-02-15T06:40:46;70.00;;;24.80;;
71080;SDS011;58740;50.672;18.690;2023-02-15T06:43:14;58.40;;;24.40;;
71080;SDS011;58740;50.672;18.690;2023-02-15T06:45:42;68.60;;;26.10;;
71080;SDS011;58740;50.672;18.690;2023-02-15T06:48:10;61.90;;;23.90;;
71080;SDS011;58740;50.672;18.690;2023-02-15T06:50:38;60.90;;;24.50;;
71080;SDS011;58740;50.672;18.690;2023-02-15T06:53:07;60.70;;;24.10;;
71080;SDS011;58740;50.672;18.690;2023-02-15T06:55:34;63.90;;;25.30;;
71080;SDS011;58740;50.672;18.690;2023-02-15T06:58:02;49.50;;;19.60;;
71080;SDS011;58740;50.672;18.690;2023-02-15T07:00:30;64.90;;;20.90;;
71080;SDS011;58740;50.672;18.690;2023-02-15T07:02:58;65.10;;;24.50;;
71080;SDS011;58740;50.672;18.690;2023-02-15T07:05:26;62.30;;;24.40;;
71080;SDS011;58740;50.672;18.690;2023-02-15T07:07:59;57.70;;;21.60;;
71080;SDS011;58740;50.672;18.690;2023-02-15T07:10:28;60.70;;;23.10;;
71080;SDS011;58740;50.672;18.690;2023-02-15T07:12:56;55.00;;;22.50;;
71080;SDS011;58740;50.672;18.690;2023-02-15T07:15:24;42.50;;;18.50;;
71080;SDS011;58740;50.672;18.690;2023-02-15T07:17:52;63.90;;;23.10;;
71080;SDS011;58740;50.672;18.690;2023-02-15T07:20:21;53.30;;;20.60;;
71080;SDS011;58740;50.672;18.690;2023-02-15T07:22:50;65.20;;;23.50;;
71080;SDS011;58740;50.672;18.690;2023-02-15T07:25:18;55.80;;;22.60;;
71080;SDS011;58740;50.672;18.690;2023-02-15T07:27:46;55.20;;;20.30;;
71080;SDS011;58740;50.672;18.690;2023-02-15T07:30:15;53.10;;;20.50;;
71080;SDS011;58740;50.672;18.690;2023-02-15T07:32:44;53.30;;;22.70;;
71080;SDS011;58740;50.672;18.690;2023-02-15T07:35:33;45.60;;;21.10;;
71080;SDS011;58740;50.672;18.690;2023-02-15T07:38:01;58.70;;;25.20;;
71080;SDS011;58740;50.672;18.690;2023-02-15T07:40:29;54.20;;;24.60;;
71080;SDS011;58740;50.672;18.690;2023-02-15T07:42:58;54.10;;;22.50;;
71080;SDS011;58740;50.672;18.690;2023-02-15T07:45:27;54.10;;;20.80;;
71080;SDS011;58740;50.672;18.690;2023-02-15T07:47:54;57.20;;;25.60;;
71080;SDS011;58740;50.672;18.690;2023-02-15T07:50:22;53.40;;;23.20;;
71080;SDS011;58740;50.672;18.690;2023-02-15T07:52:50;42.30;;;17.20;;
71080;SDS011;58740;50.672;18.690;2023-02-15T07:55:18;49.40;;;20.40;;
71080;SDS011;58740;50.672;18.690;2023-02-15T07:57:49;45.90;;;17.70;;
71080;SDS011;58740;50.672;18.690;2023-02-15T08:00:19;53.20;;;21.20;;
71080;SDS011;58740;50.672;18.690;2023-02-15T08:02:54;46.60;;;18.50;;
71080;SDS011;58740;50.672;18.690;2023-02-15T08:05:57;45.60;;;19.70;;
71080;SDS011;58740;50.672;18.690;2023-02-15T08:08:27;48.90;;;20.30;;
71080;SDS011;58740;50.672;18.690;2023-02-15T08:11:28;24.50;;;10.90;;
71080;SDS011;58740;50.672;18.690;2023-02-15T08:16:48;49.00;;;19.50;;
71080;SDS011;58740;50.672;18.690;2023-02-15T08:19:26;44.80;;;15.60;;
71080;SDS011;58740;50.672;18.690;2023-02-15T08:22:01;49.80;;;17.80;;
71080;SDS011;58740;50.672;18.690;2023-02-15T08:24:33;44.80;;;16.40;;
71080;SDS011;58740;50.672;18.690;2023-02-15T08:27:06;40.40;;;17.70;;
71080;SDS011;58740;50.672;18.690;2023-02-15T08:29:37;40.90;;;17.20;;
71080;SDS011;58740;50.672;18.690;2023-02-15T08:32:08;46.70;;;18.90;;
71080;SDS011;58740;50.672;18.690;2023-02-15T08:34:40;41.10;;;17.40;;
71080;SDS011;58740;50.672;18.690;2023-02-15T08:37:09;53.20;;;22.20;;
71080;SDS011;58740;50.672;18.690;2023-02-15T08:39:36;53.90;;;21.10;;
71080;SDS011;58740;50.672;18.690;2023-02-15T08:42:04;45.70;;;19.70;;
71080;SDS011;58740;50.672;18.690;2023-02-15T08:44:32;49.60;;;20.30;;
71080;SDS011;58740;50.672;18.690;2023-02-15T08:47:00;39.50;;;17.60;;
71080;SDS011;58740;50.672;18.690;2023-02-15T08:49:31;37.20;;;17.30;;
71080;SDS011;58740;50.672;18.690;2023-02-15T08:51:59;36.90;;;16.30;;
71080;SDS011;58740;50.672;18.690;2023-02-15T08:54:27;43.90;;;20.70;;
71080;SDS011;58740;50.672;18.690;2023-02-15T08:56:55;33.50;;;14.40;;
71080;SDS011;58740;50.672;18.690;2023-02-15T08:59:23;44.30;;;18.50;;
71080;SDS011;58740;50.672;18.690;2023-02-15T09:01:51;41.70;;;17.50;;
71080;SDS011;58740;50.672;18.690;2023-02-15T09:04:20;34.50;;;17.50;;
71080;SDS011;58740;50.672;18.690;2023-02-15T09:06:49;39.60;;;16.90;;
71080;SDS011;58740;50.672;18.690;2023-02-15T09:09:18;39.30;;;17.60;;
71080;SDS011;58740;50.672;18.690;2023-02-15T09:11:49;39.30;;;17.90;;
71080;SDS011;58740;50.672;18.690;2023-02-15T09:14:26;33.20;;;15.20;;
71080;SDS011;58740;50.672;18.690;2023-02-15T09:16:54;37.40;;;17.10;;
71080;SDS011;58740;50.672;18.690;2023-02-15T09:19:23;33.30;;;14.50;;
71080;SDS011;58740;50.672;18.690;2023-02-15T09:21:52;35.20;;;15.90;;
71080;SDS011;58740;50.672;18.690;2023-02-15T09:24:19;31.10;;;14.30;;
71080;SDS011;58740;50.672;18.690;2023-02-15T09:26:48;34.80;;;16.40;;
71080;SDS011;58740;50.672;18.690;2023-02-15T09:29:17;25.50;;;13.40;;
71080;SDS011;58740;50.672;18.690;2023-02-15T09:31:48;35.70;;;18.00;;
71080;SDS011;58740;50.672;18.690;2023-02-15T09:34:21;23.30;;;11.90;;
71080;SDS011;58740;50.672;18.690;2023-02-15T09:36:50;33.60;;;16.70;;
71080;SDS011;58740;50.672;18.690;2023-02-15T09:39:23;35.40;;;16.20;;
71080;SDS011;58740;50.672;18.690;2023-02-15T09:47:30;35.20;;;17.60;;
71080;SDS011;58740;50.672;18.690;2023-02-15T09:50:28;32.90;;;16.30;;
71080;SDS011;58740;50.672;18.690;2023-02-15T09:56:32;31.60;;;13.80;;
71080;SDS011;58740;50.672;18.690;2023-02-15T10:05:58;30.10;;;14.60;;
71080;SDS011;58740;50.672;18.690;2023-02-15T10:18:38;30.40;;;15.40;;
71080;SDS011;58740;50.672;18.690;2023-02-15T10:27:26;32.10;;;14.60;;
71080;SDS011;58740;50.672;18.690;2023-02-15T10:30:11;32.00;;;16.20;;
71080;SDS011;58740;50.672;18.690;2023-02-15T10:35:51;31.20;;;16.50;;
71080;SDS011;58740;50.672;18.690;2023-02-15T10:39:05;27.10;;;12.70;;
71080;SDS011;58740;50.672;18.690;2023-02-15T10:47:34;32.50;;;16.10;;
71080;SDS011;58740;50.672;18.690;2023-02-15T10:59:18;32.10;;;14.20;;
71080;SDS011;58740;50.672;18.690;2023-02-15T11:05:07;33.30;;;15.70;;
71080;SDS011;58740;50.672;18.690;2023-02-15T11:07:55;34.60;;;16.80;;
71080;SDS011;58740;50.672;18.690;2023-02-15T11:10:35;29.70;;;15.30;;
71080;SDS011;58740;50.672;18.690;2023-02-15T11:13:13;33.00;;;16.30;;
71080;SDS011;58740;50.672;18.690;2023-02-15T11:15:49;30.10;;;14.80;;
71080;SDS011;58740;50.672;18.690;2023-02-15T11:18:32;39.40;;;16.90;;
71080;SDS011;58740;50.672;18.690;2023-02-15T11:21:44;31.50;;;16.30;;
71080;SDS011;58740;50.672;18.690;2023-02-15T11:24:14;25.10;;;12.90;;
71080;SDS011;58740;50.672;18.690;2023-02-15T11:26:51;19.70;;;10.60;;
71080;SDS011;58740;50.672;18.690;2023-02-15T11:29:40;23.80;;;11.80;;
71080;SDS011;58740;50.672;18.690;2023-02-15T11:32:30;38.60;;;16.30;;
71080;SDS011;58740;50.672;18.690;2023-02-15T11:35:06;46.10;;;19.20;;
71080;SDS011;58740;50.672;18.690;2023-02-15T11:40:25;26.70;;;13.70;;
71080;SDS011;58740;50.672;18.690;2023-02-15T11:42:59;30.40;;;14.30;;
71080;SDS011;58740;50.672;18.690;2023-02-15T11:45:35;29.50;;;14.50;;
71080;SDS011;58740;50.672;18.690;2023-02-15T11:48:10;22.00;;;12.20;;
71080;SDS011;58740;50.672;18.690;2023-02-15T11:50:40;26.40;;;12.60;;
71080;SDS011;58740;50.672;18.690;2023-02-15T11:53:18;30.60;;;15.60;;
71080;SDS011;58740;50.672;18.690;2023-02-15T11:55:55;29.50;;;14.10;;
71080;SDS011;58740;50.672;18.690;2023-02-15T12:01:34;27.30;;;13.20;;
71080;SDS011;58740;50.672;18.690;2023-02-15T12:04:12;26.70;;;13.20;;
71080;SDS011;58740;50.672;18.690;2023-02-15T12:06:58;36.10;;;13.90;;
71080;SDS011;58740;50.672;18.690;2023-02-15T12:09:47;32.50;;;13.90;;
71080;SDS011;58740;50.672;18.690;2023-02-15T12:12:21;26.80;;;12.70;;
71080;SDS011;58740;50.672;18.690;2023-02-15T12:15:03;26.90;;;12.90;;
71080;SDS011;58740;50.672;18.690;2023-02-15T12:17:52;27.90;;;14.20;;
71080;SDS011;58740;50.672;18.690;2023-02-15T12:20:29;24.70;;;13.30;;
71080;SDS011;58740;50.672;18.690;2023-02-15T12:23:04;28.40;;;13.60;;
71080;SDS011;58740;50.672;18.690;2023-02-15T12:25:50;24.30;;;12.20;;
71080;SDS011;58740;50.672;18.690;2023-02-15T12:33:50;25.40;;;12.40;;
71080;SDS011;58740;50.672;18.690;2023-02-15T12:36:24;33.20;;;15.30;;
71080;SDS011;58740;50.672;18.690;2023-02-15T12:41:46;27.80;;;12.50;;
71080;SDS011;58740;50.672;18.690;2023-02-15T12:44:29;23.80;;;11.60;;
71080;SDS011;58740;50.672;18.690;2023-02-15T12:49:36;27.60;;;13.60;;
71080;SDS011;58740;50.672;18.690;2023-02-15T12:52:25;27.20;;;12.70;;
71080;SDS011;58740;50.672;18.690;2023-02-15T12:54:53;24.20;;;13.00;;
71080;SDS011;58740;50.672;18.690;2023-02-15T12:57:27;29.10;;;14.30;;
71080;SDS011;58740;50.672;18.690;2023-02-15T13:00:05;27.50;;;14.80;;
71080;SDS011;58740;50.672;18.690;2023-02-15T13:02:54;24.30;;;13.50;;
71080;SDS011;58740;50.672;18.690;2023-02-15T13:05:41;26.40;;;13.30;;
71080;SDS011;58740;50.672;18.690;2023-02-15T13:08:17;35.00;;;16.10;;
71080;SDS011;58740;50.672;18.690;2023-02-15T13:10:58;23.90;;;12.20;;
71080;SDS011;58740;50.672;18.690;2023-02-15T13:13:54;24.50;;;11.10;;
71080;SDS011;58740;50.672;18.690;2023-02-15T13:16:36;32.30;;;13.90;;
71080;SDS011;58740;50.672;18.690;2023-02-15T13:19:17;29.20;;;13.10;;
71080;SDS011;58740;50.672;18.690;2023-02-15T13:21:51;27.20;;;13.00;;
71080;SDS011;58740;50.672;18.690;2023-02-15T13:24:26;31.10;;;13.10;;
71080;SDS011;58740;50.672;18.690;2023-02-15T13:26:59;25.60;;;12.60;;
71080;SDS011;58740;50.672;18.690;2023-02-15T13:29:47;23.70;;;11.70;;
71080;SDS011;58740;50.672;18.690;2023-02-15T13:32:38;23.40;;;12.40;;
71080;SDS011;58740;50.672;18.690;2023-02-15T13:35:16;22.10;;;10.90;;
71080;SDS011;58740;50.672;18.690;2023-02-15T13:38:10;20.80;;;11.10;;
71080;SDS011;58740;50.672;18.690;2023-02-15T13:52:21;16.90;;;8.80;;
71080;SDS011;58740;50.672;18.690;2023-02-15T13:55:20;22.40;;;10.70;;
71080;SDS011;58740;50.672;18.690;2023-02-15T13:58:01;21.50;;;10.50;;
71080;SDS011;58740;50.672;18.690;2023-02-15T14:01:11;21.60;;;10.00;;
71080;SDS011;58740;50.672;18.690;2023-02-15T14:04:17;17.70;;;8.80;;
71080;SDS011;58740;50.672;18.690;2023-02-15T14:07:20;18.00;;;9.20;;
71080;SDS011;58740;50.672;18.690;2023-02-15T14:11:15;20.60;;;9.50;;
71080;SDS011;58740;50.672;18.690;2023-02-15T14:16:41;15.20;;;7.90;;
71080;SDS011;58740;50.672;18.690;2023-02-15T14:19:45;20.80;;;9.70;;
71080;SDS011;58740;50.672;18.690;2023-02-15T14:22:38;16.50;;;7.60;;
71080;SDS011;58740;50.672;18.690;2023-02-15T14:25:27;18.10;;;8.80;;
71080;SDS011;58740;50.672;18.690;2023-02-15T14:28:15;12.70;;;7.20;;
71080;SDS011;58740;50.672;18.690;2023-02-15T14:30:50;21.30;;;8.00;;
71080;SDS011;58740;50.672;18.690;2023-02-15T14:33:37;17.80;;;8.10;;
71080;SDS011;58740;50.672;18.690;2023-02-15T14:36:10;15.20;;;7.70;;
71080;SDS011;58740;50.672;18.690;2023-02-15T14:42:25;16.40;;;7.60;;
71080;SDS011;58740;50.672;18.690;2023-02-15T14:48:17;14.10;;;6.30;;
71080;SDS011;58740;50.672;18.690;2023-02-15T14:50:56;19.40;;;9.40;;
71080;SDS011;58740;50.672;18.690;2023-02-15T14:53:36;18.40;;;9.80;;
71080;SDS011;58740;50.672;18.690;2023-02-15T15:01:29;16.20;;;8.20;;
71080;SDS011;58740;50.672;18.690;2023-02-15T15:04:20;17.70;;;9.60;;
71080;SDS011;58740;50.672;18.690;2023-02-15T15:07:21;20.70;;;11.10;;
71080;SDS011;58740;50.672;18.690;2023-02-15T15:10:02;23.40;;;10.60;;
71080;SDS011;58740;50.672;18.690;2023-02-15T15:15:05;20.10;;;10.30;;
71080;SDS011;58740;50.672;18.690;2023-02-15T15:20:19;20.30;;;10.30;;
71080;SDS011;58740;50.672;18.690;2023-02-15T15:25:44;19.50;;;10.70;;
71080;SDS011;58740;50.672;18.690;2023-02-15T15:48:38;20.60;;;11.00;;
71080;SDS011;58740;50.672;18.690;2023-02-15T15:51:12;25.90;;;12.70;;
71080;SDS011;58740;50.672;18.690;2023-02-15T15:53:49;23.40;;;12.20;;
71080;SDS011;58740;50.672;18.690;2023-02-15T15:56:27;17.70;;;9.30;;
71080;SDS011;58740;50.672;18.690;2023-02-15T15:59:06;26.50;;;13.50;;
71080;SDS011;58740;50.672;18.690;2023-02-15T16:01:46;27.50;;;13.00;;
71080;SDS011;58740;50.672;18.690;2023-02-15T16:04:28;26.10;;;11.70;;
71080;SDS011;58740;50.672;18.690;2023-02-15T16:10:04;37.10;;;16.60;;
71080;SDS011;58740;50.672;18.690;2023-02-15T16:12:47;44.70;;;21.80;;
71080;SDS011;58740;50.672;18.690;2023-02-15T16:15:20;44.90;;;23.70;;
71080;SDS011;58740;50.672;18.690;2023-02-15T16:17:56;42.30;;;24.40;;
71080;SDS011;58740;50.672;18.690;2023-02-15T16:20:33;34.10;;;18.20;;
71080;SDS011;58740;50.672;18.690;2023-02-15T16:28:52;56.90;;;26.70;;
71080;SDS011;58740;50.672;18.690;2023-02-15T16:31:22;64.70;;;30.00;;
71080;SDS011;58740;50.672;18.690;2023-02-15T16:33:55;58.10;;;30.10;;
71080;SDS011;58740;50.672;18.690;2023-02-15T16:36:27;55.30;;;28.00;;
71080;SDS011;58740;50.672;18.690;2023-02-15T16:41:26;64.90;;;32.60;;
71080;SDS011;58740;50.672;18.690;2023-02-15T16:44:04;70.90;;;35.20;;
71080;SDS011;58740;50.672;18.690;2023-02-15T16:46:42;64.40;;;33.40;;
71080;SDS011;58740;50.672;18.690;2023-02-15T16:49:18;58.30;;;29.20;;
71080;SDS011;58740;50.672;18.690;2023-02-15T16:51:55;65.40;;;30.00;;
71080;SDS011;58740;50.672;18.690;2023-02-15T16:54:28;56.80;;;28.10;;
71080;SDS011;58740;50.672;18.690;2023-02-15T16:56:59;59.90;;;28.20;;
71080;SDS011;58740;50.672;18.690;2023-02-15T16:59:45;59.20;;;26.30;;
71080;SDS011;58740;50.672;18.690;2023-02-15T17:02:27;61.40;;;27.10;;
71080;SDS011;58740;50.672;18.690;2023-02-15T17:05:18;48.00;;;21.20;;
71080;SDS011;58740;50.672;18.690;2023-02-15T17:10:33;69.60;;;33.60;;
71080;SDS011;58740;50.672;18.690;2023-02-15T17:13:27;63.80;;;32.40;;
71080;SDS011;58740;50.672;18.690;2023-02-15T17:18:33;61.70;;;31.50;;
71080;SDS011;58740;50.672;18.690;2023-02-15T17:21:10;63.60;;;32.60;;
71080;SDS011;58740;50.672;18.690;2023-02-15T17:23:46;67.00;;;35.90;;
71080;SDS011;58740;50.672;18.690;2023-02-15T17:26:17;38.30;;;22.60;;
71080;SDS011;58740;50.672;18.690;2023-02-15T17:29:22;56.40;;;30.60;;
71080;SDS011;58740;50.672;18.690;2023-02-15T17:31:49;43.50;;;24.10;;
71080;SDS011;58740;50.672;18.690;2023-02-15T17:40:26;59.60;;;28.40;;
71080;SDS011;58740;50.672;18.690;2023-02-15T17:43:01;74.50;;;33.90;;
71080;SDS011;58740;50.672;18.690;2023-02-15T17:45:35;73.80;;;33.50;;
71080;SDS011;58740;50.672;18.690;2023-02-15T17:48:34;81.60;;;35.80;;